createdAt,value
2022-09-12T00:01:51.808Z,96715.63
2022-09-12T00:04:18.689Z,96708.50
2022-09-12T00:06:45.519Z,96718.47
2022-09-12T00:09:14.466Z,96713.22
2022-09-12T00:11:45.229Z,96707.50
2022-09-12T00:14:16.123Z,96700.22
2022-09-12T00:16:43.471Z,96705.88
2022-09-12T00:19:11.962Z,96692.09
2022-09-12T00:21:40.230Z,96698.16
2022-09-12T00:24:08.029Z,96704.66
2022-09-12T00:26:34.836Z,96699.41
2022-09-12T00:29:01.656Z,96689.66
2022-09-12T00:31:28.582Z,96692.50
2022-09-12T00:33:58.430Z,96684.78
2022-09-12T00:36:26.420Z,96691.28
2022-09-12T00:38:54.577Z,96689.66
2022-09-12T00:41:29.927Z,96693.28
2022-09-12T00:44:00.465Z,96694.09
2022-09-12T00:47:06.187Z,96690.22
2022-09-12T00:49:40.579Z,96688.41
2022-09-12T00:52:23.954Z,96688.75
2022-09-12T00:55:08.088Z,96682.63
2022-09-12T00:57:50.504Z,96683.66
2022-09-12T01:00:21.006Z,96679.78
2022-09-12T01:02:54.621Z,96676.16
2022-09-12T01:05:23.807Z,96675.16
2022-09-12T01:07:51.690Z,96669.66
2022-09-12T01:10:20.076Z,96672.91
2022-09-12T01:12:47.977Z,96668.06
2022-09-12T01:15:14.773Z,96664.03
2022-09-12T01:18:11.829Z,96668.88
2022-09-12T01:21:01.229Z,96666.44
2022-09-12T01:24:35.792Z,96662.56
2022-09-12T01:27:44.369Z,96654.66
2022-09-12T01:30:21.274Z,96647.78
2022-09-12T01:32:54.918Z,96655.06
2022-09-12T01:36:09.501Z,96657.91
2022-09-12T01:38:48.399Z,96653.44
2022-09-12T01:41:28.975Z,96653.84
2022-09-12T01:44:50.754Z,96664.72
2022-09-12T01:47:31.429Z,96659.41
2022-09-12T01:50:06.971Z,96651.28
2022-09-12T01:52:43.018Z,96648.41
2022-09-12T01:55:20.927Z,96658.69
2022-09-12T01:58:06.062Z,96652.84
2022-09-12T02:00:48.153Z,96643.31
2022-09-12T02:03:20.694Z,96648.38
2022-09-12T02:05:59.817Z,96641.69
2022-09-12T02:08:34.930Z,96644.31
2022-09-12T02:11:09.677Z,96638.84
2022-09-12T02:13:49.423Z,96636.56
2022-09-12T02:16:32.051Z,96628.44
2022-09-12T02:19:11.087Z,96629.22
2022-09-12T02:21:45.254Z,96617.91
2022-09-12T02:24:14.968Z,96617.09
2022-09-12T02:26:49.563Z,96614.06
2022-09-12T02:29:16.671Z,96611.22
2022-09-12T02:31:55.358Z,96614.22
2022-09-12T02:34:49.417Z,96616.63
2022-09-12T02:37:41.991Z,96607.47
2022-09-12T02:40:09.790Z,96602.22
2022-09-12T02:42:37.543Z,96600.63
2022-09-12T02:45:05.262Z,96605.59
2022-09-12T02:47:38.935Z,96599.94
2022-09-12T02:50:08.058Z,96606.38
2022-09-12T02:52:36.315Z,96602.31
2022-09-12T02:55:06.544Z,96600.66
2022-09-12T02:57:33.650Z,96605.88
2022-09-12T03:00:01.990Z,96615.53
2022-09-12T03:02:51.651Z,96614.91
2022-09-12T03:05:35.635Z,96612.69
2022-09-12T03:08:44.283Z,96609.41
2022-09-12T03:12:05.978Z,96608.19
2022-09-12T03:14:45.157Z,96613.81
2022-09-12T03:17:42.231Z,96604.91
2022-09-12T03:20:45.845Z,96611.44
2022-09-12T03:23:25.049Z,96609.03
2022-09-12T03:26:04.312Z,96613.91
2022-09-12T03:28:33.250Z,96604.66
2022-09-12T03:31:00.124Z,96614.41
2022-09-12T03:33:27.042Z,96609.50
2022-09-12T03:35:55.007Z,96612.13
2022-09-12T03:38:22.062Z,96606.47
2022-09-12T03:40:54.047Z,96612.78
2022-09-12T03:43:21.724Z,96608.19
2022-09-12T03:45:54.356Z,96616.09
2022-09-12T03:48:21.141Z,96613.91
2022-09-12T03:50:47.907Z,96615.34
2022-09-12T03:53:17.215Z,96610.31
2022-09-12T03:55:44.714Z,96605.81
2022-09-12T03:58:11.510Z,96616.06
2022-09-12T04:00:39.520Z,96615.44
2022-09-12T04:03:06.273Z,96613.81
2022-09-12T04:05:33.141Z,96606.88
2022-09-12T04:07:59.900Z,96607.06
2022-09-12T04:10:26.655Z,96602.00
2022-09-12T04:12:53.441Z,96618.63
2022-09-12T04:15:20.279Z,96619.28
2022-09-12T04:17:47.034Z,96610.38
2022-09-12T04:20:13.794Z,96605.69
2022-09-12T04:22:40.561Z,96602.06
2022-09-12T04:25:09.459Z,96606.53
2022-09-12T04:27:36.415Z,96608.13
2022-09-12T04:30:04.486Z,96603.63
2022-09-12T04:32:31.606Z,96611.25
2022-09-12T04:34:58.561Z,96603.56
2022-09-12T04:37:25.357Z,96617.25
2022-09-12T04:39:55.980Z,96608.72
2022-09-12T04:42:22.790Z,96614.00
2022-09-12T04:44:49.756Z,96610.75
2022-09-12T04:47:16.913Z,96603.88
2022-09-12T04:49:43.718Z,96602.63
2022-09-12T04:52:10.475Z,96601.75
2022-09-12T04:54:37.868Z,96605.19
2022-09-12T04:57:04.742Z,96600.16
2022-09-12T04:59:31.534Z,96610.69
2022-09-12T05:01:58.662Z,96604.19
2022-09-12T05:04:25.451Z,96616.75
2022-09-12T05:06:52.210Z,96615.06
2022-09-12T05:09:18.960Z,96622.19
2022-09-12T05:12:03.683Z,96620.44
2022-09-12T05:14:32.507Z,96622.50
2022-09-12T05:17:01.647Z,96624.91
2022-09-12T05:19:30.403Z,96621.28
2022-09-12T05:21:57.376Z,96616.75
2022-09-12T05:24:24.683Z,96612.09
2022-09-12T05:26:51.571Z,96616.81
2022-09-12T05:29:18.912Z,96622.38
2022-09-12T05:31:45.777Z,96624.06
2022-09-12T05:34:12.671Z,96626.31
2022-09-12T05:36:39.612Z,96632.66
2022-09-12T05:39:06.412Z,96632.50
2022-09-12T05:41:34.803Z,96641.47
2022-09-12T05:44:06.762Z,96641.53
2022-09-12T05:46:41.923Z,96632.69
2022-09-12T05:49:12.126Z,96638.38
2022-09-12T05:51:45.080Z,96635.59
2022-09-12T05:54:17.032Z,96634.38
2022-09-12T05:56:44.968Z,96630.78
2022-09-12T05:59:19.043Z,96634.25
2022-09-12T06:01:46.247Z,96630.00
2022-09-12T06:04:13.195Z,96637.28
2022-09-12T06:06:47.212Z,96643.75
2022-09-12T06:09:16.393Z,96642.31
2022-09-12T06:11:44.489Z,96637.56
2022-09-12T06:14:14.993Z,96635.44
2022-09-12T06:16:42.094Z,96637.34
2022-09-12T06:19:18.815Z,96636.38
2022-09-12T06:21:47.501Z,96639.69
2022-09-12T06:24:14.289Z,96648.59
2022-09-12T06:26:41.397Z,96644.38
2022-09-12T06:29:08.455Z,96639.41
2022-09-12T06:31:38.183Z,96634.75
2022-09-12T06:34:11.931Z,96634.88
2022-09-12T06:36:47.859Z,96639.03
2022-09-12T06:39:23.157Z,96646.38
2022-09-12T06:41:52.111Z,96644.16
2022-09-12T06:44:21.675Z,96643.03
2022-09-12T06:46:49.078Z,96637.16
2022-09-12T06:49:17.699Z,96640.06
2022-09-12T06:51:44.760Z,96635.56
2022-09-12T06:54:17.160Z,96639.56
2022-09-12T06:56:44.841Z,96641.41
2022-09-12T06:59:11.797Z,96636.97
2022-09-12T07:01:39.911Z,96637.16
2022-09-12T07:04:07.119Z,96625.69
2022-09-12T07:06:40.994Z,96625.84
2022-09-12T07:09:12.138Z,96629.00
2022-09-12T07:11:41.304Z,96628.28
2022-09-12T07:14:12.014Z,96622.13
2022-09-12T07:16:38.874Z,96626.41
2022-09-12T07:19:08.047Z,96623.78
2022-09-12T07:21:39.713Z,96630.47
2022-09-12T07:24:09.054Z,96626.78
2022-09-12T07:26:35.926Z,96627.66
2022-09-12T07:31:49.736Z,96625.44
2022-09-12T07:34:17.528Z,96636.41
2022-09-12T07:36:44.307Z,96633.22
2022-09-12T07:39:11.197Z,96631.91
2022-09-12T07:41:38.025Z,96635.81
2022-09-12T07:44:06.947Z,96627.66
2022-09-12T07:46:34.839Z,96625.63
2022-09-12T07:49:02.326Z,96620.78
2022-09-12T07:51:30.799Z,96625.84
2022-09-12T07:53:58.335Z,96619.72
2022-09-12T07:56:30.147Z,96632.78
2022-09-12T07:58:58.815Z,96639.38
2022-09-12T08:01:25.697Z,96624.88
2022-09-12T08:03:59.651Z,96622.25
2022-09-12T08:06:30.207Z,96623.28
2022-09-12T08:08:58.395Z,96622.41
2022-09-12T08:11:28.047Z,96625.22
2022-09-12T08:13:57.160Z,96629.00
2022-09-12T08:16:28.002Z,96631.31
2022-09-12T08:18:55.090Z,96626.91
2022-09-12T08:21:25.362Z,96631.44
2022-09-12T08:24:01.898Z,96623.72
2022-09-12T08:26:29.618Z,96629.13
2022-09-12T08:28:56.662Z,96629.41
2022-09-12T08:31:26.695Z,96632.81
2022-09-12T08:33:56.684Z,96632.28
2022-09-12T08:36:26.587Z,96630.94
2022-09-12T08:39:06.641Z,96628.59
2022-09-12T08:41:40.645Z,96635.00
2022-09-12T08:44:16.364Z,96634.63
2022-09-12T08:47:17.149Z,96632.31
2022-09-12T08:50:09.711Z,96627.97
2022-09-12T08:53:03.296Z,96632.22
2022-09-12T08:55:38.374Z,96633.25
2022-09-12T08:58:23.563Z,96627.53
2022-09-12T09:01:11.200Z,96626.66
2022-09-12T09:04:05.478Z,96628.47
2022-09-12T09:07:22.722Z,96626.34
2022-09-12T09:10:23.179Z,96619.09
2022-09-12T09:13:45.502Z,96619.13
2022-09-12T09:16:31.152Z,96621.56
2022-09-12T09:19:05.262Z,96616.72
2022-09-12T09:21:51.181Z,96621.53
2022-09-12T09:24:23.827Z,96612.75
2022-09-12T09:26:59.018Z,96612.94
2022-09-12T09:29:44.515Z,96609.19
2022-09-12T09:32:21.906Z,96616.19
2022-09-12T09:34:48.812Z,96606.41
2022-09-12T09:37:32.648Z,96609.38
2022-09-12T09:40:24.619Z,96610.41
2022-09-12T09:43:18.462Z,96606.75
2022-09-12T09:45:47.817Z,96600.38
2022-09-12T09:48:31.594Z,96603.81
2022-09-12T09:51:01.767Z,96600.78
2022-09-12T09:53:40.522Z,96597.94
2022-09-12T09:56:39.932Z,96593.00
2022-09-12T09:59:16.242Z,96598.53
2022-09-12T10:02:03.881Z,96594.22
2022-09-12T10:04:38.080Z,96592.66
2022-09-12T10:07:20.082Z,96588.66
2022-09-12T10:10:15.297Z,96589.94
2022-09-12T10:12:42.651Z,96590.91
2022-09-12T10:15:30.391Z,96582.66
2022-09-12T10:17:58.756Z,96575.59
2022-09-12T10:20:43.296Z,96579.81
2022-09-12T10:23:19.205Z,96582.34
2022-09-12T10:26:10.480Z,96576.53
2022-09-12T10:28:44.718Z,96574.78
2022-09-12T10:31:17.126Z,96571.38
2022-09-12T10:33:53.668Z,96564.09
2022-09-12T10:36:21.927Z,96556.84
2022-09-12T10:38:54.951Z,96558.41
2022-09-12T10:41:22.012Z,96566.81
2022-09-12T10:43:50.171Z,96568.75
2022-09-12T10:46:19.598Z,96564.84
2022-09-12T10:48:50.639Z,96560.06
2022-09-12T10:51:29.318Z,96559.03
2022-09-12T10:54:05.480Z,96564.56
2022-09-12T10:56:39.587Z,96564.00
2022-09-12T10:59:38.611Z,96566.00
2022-09-12T11:02:28.293Z,96564.28
2022-09-12T11:05:24.256Z,96558.59
2022-09-12T11:08:01.590Z,96561.19
2022-09-12T11:11:09.783Z,96555.78
2022-09-12T11:13:56.041Z,96550.22
2022-09-12T11:16:44.094Z,96554.41
2022-09-12T11:19:51.001Z,96548.00
2022-09-12T11:22:45.627Z,96544.44
2022-09-12T11:25:31.737Z,96537.75
2022-09-12T11:28:19.982Z,96542.25
2022-09-12T11:31:16.504Z,96539.16
2022-09-12T11:33:50.615Z,96542.53
2022-09-12T11:37:15.101Z,96536.34
2022-09-12T11:39:53.407Z,96541.56
2022-09-12T11:42:32.078Z,96540.41
2022-09-12T11:45:15.908Z,96542.63
2022-09-12T11:47:49.541Z,96532.41
2022-09-12T11:50:26.560Z,96543.22
2022-09-12T11:53:06.571Z,96527.59
2022-09-12T11:56:12.599Z,96531.69
2022-09-12T11:58:42.834Z,96528.97
2022-09-12T12:01:20.975Z,96528.31
2022-09-12T12:03:48.865Z,96520.53
2022-09-12T12:06:32.962Z,96530.88
2022-09-12T12:09:00.034Z,96530.34
2022-09-12T12:11:47.127Z,96526.75
2022-09-12T12:14:26.590Z,96522.00
2022-09-12T12:16:53.455Z,96516.47
2022-09-12T12:19:33.882Z,96508.72
2022-09-12T12:22:23.192Z,96517.63
2022-09-12T12:25:02.142Z,96508.47
2022-09-12T12:28:01.578Z,96505.00
2022-09-12T12:30:31.238Z,96505.34
2022-09-12T12:33:12.852Z,96501.94
2022-09-12T12:35:46.196Z,96500.66
2022-09-12T12:38:36.876Z,96494.78
2022-09-12T12:41:18.862Z,96494.00
2022-09-12T12:43:53.605Z,96499.91
2022-09-12T12:46:22.808Z,96491.72
2022-09-12T12:49:18.871Z,96491.91
2022-09-12T12:51:56.643Z,96482.00
2022-09-12T12:54:41.398Z,96492.66
2022-09-12T12:57:24.727Z,96478.72
2022-09-12T13:00:28.227Z,96479.66
2022-09-12T13:03:06.746Z,96465.97
2022-09-12T13:05:52.827Z,96460.81
2022-09-12T13:08:19.833Z,96461.56
2022-09-12T13:11:00.295Z,96467.94
2022-09-12T13:14:09.320Z,96447.06
2022-09-12T13:16:39.829Z,96442.53
2022-09-12T13:19:29.958Z,96447.50
2022-09-12T13:21:59.456Z,96445.81
2022-09-12T13:24:26.190Z,96455.56
2022-09-12T13:26:53.491Z,96437.91
2022-09-12T13:29:25.957Z,96434.44
2022-09-12T13:32:03.062Z,96431.53
2022-09-12T13:34:34.398Z,96426.47
2022-09-12T13:37:48.595Z,96429.44
2022-09-12T13:40:36.618Z,96421.88
2022-09-12T13:43:29.998Z,96418.06
2022-09-12T13:45:56.845Z,96409.97
2022-09-12T13:48:25.910Z,96413.53
2022-09-12T13:50:59.947Z,96414.31
2022-09-12T13:53:34.525Z,96417.25
2022-09-12T13:56:01.834Z,96408.03
2022-09-12T13:58:35.033Z,96416.72
2022-09-12T14:01:14.532Z,96412.22
2022-09-12T14:04:11.755Z,96418.78
2022-09-12T14:06:50.822Z,96412.25
2022-09-12T14:09:52.014Z,96409.84
2022-09-12T14:12:33.960Z,96394.72
2022-09-12T14:15:01.530Z,96395.13
2022-09-12T14:17:33.536Z,96395.03
2022-09-12T14:20:06.826Z,96386.47
2022-09-12T14:22:36.292Z,96387.19
2022-09-12T14:25:04.034Z,96384.03
2022-09-12T14:27:45.639Z,96394.94
2022-09-12T14:30:26.238Z,96377.09
2022-09-12T14:33:11.339Z,96379.66
2022-09-12T14:35:53.259Z,96365.22
2022-09-12T14:38:31.909Z,96379.59
2022-09-12T14:41:06.775Z,96375.75
2022-09-12T14:43:36.436Z,96372.97
2022-09-12T14:46:07.859Z,96372.09
2022-09-12T14:48:47.630Z,96367.41
2022-09-12T14:51:26.602Z,96371.94
2022-09-12T14:53:53.695Z,96358.44
2022-09-12T14:56:53.452Z,96353.63
2022-09-12T14:59:37.955Z,96364.66
2022-09-12T15:02:13.705Z,96354.50
2022-09-12T15:04:42.565Z,96357.31
2022-09-12T15:07:22.640Z,96354.69
2022-09-12T15:09:49.703Z,96357.38
2022-09-12T15:12:16.798Z,96363.00
2022-09-12T15:14:43.550Z,96358.31
2022-09-12T15:17:10.314Z,96356.94
2022-09-12T15:19:37.063Z,96355.44
2022-09-12T15:22:03.842Z,96357.34
2022-09-12T15:24:30.586Z,96359.34
2022-09-12T15:26:57.361Z,96358.16
2022-09-12T15:29:24.143Z,96362.03
2022-09-12T15:31:51.594Z,96357.38
2022-09-12T15:34:19.976Z,96357.84
2022-09-12T15:36:46.770Z,96353.38
2022-09-12T15:39:13.553Z,96354.47
2022-09-12T15:41:40.366Z,96350.66
2022-09-12T15:44:11.711Z,96346.63
2022-09-12T15:46:38.863Z,96345.72
2022-09-12T15:49:06.945Z,96355.03
2022-09-12T15:51:34.122Z,96345.81
2022-09-12T15:54:04.204Z,96349.81
2022-09-12T15:56:30.987Z,96340.63
2022-09-12T15:58:59.642Z,96347.56
2022-09-12T16:01:28.655Z,96352.91
2022-09-12T16:03:55.717Z,96348.38
2022-09-12T16:06:23.411Z,96355.50
2022-09-12T16:08:50.231Z,96343.94
2022-09-12T16:11:27.783Z,96349.34
2022-09-12T16:13:56.788Z,96346.06
2022-09-12T16:16:23.760Z,96345.25
2022-09-12T16:18:50.679Z,96332.50
2022-09-12T16:21:17.758Z,96339.47
2022-09-12T16:23:46.035Z,96339.59
2022-09-12T16:26:13.727Z,96334.78
2022-09-12T16:28:40.961Z,96340.31
2022-09-12T16:31:11.119Z,96331.41
2022-09-12T16:33:39.303Z,96324.53
2022-09-12T16:36:10.033Z,96325.38
2022-09-12T16:38:49.023Z,96327.63
2022-09-12T16:41:17.823Z,96323.50
2022-09-12T16:43:45.629Z,96314.91
2022-09-12T16:46:15.892Z,96323.06
2022-09-12T16:48:52.413Z,96309.97
2022-09-12T16:51:26.521Z,96308.47
2022-09-12T16:53:54.961Z,96303.72
2022-09-12T16:56:22.884Z,96304.66
2022-09-12T16:58:50.466Z,96300.97
2022-09-12T17:01:19.677Z,96296.81
2022-09-12T17:03:47.135Z,96304.72
2022-09-12T17:06:18.401Z,96307.50
2022-09-12T17:08:49.818Z,96311.84
2022-09-12T17:11:21.606Z,96309.75
2022-09-12T17:14:10.082Z,96310.31
2022-09-12T17:16:40.571Z,96315.09
2022-09-12T17:19:08.414Z,96318.59
2022-09-12T17:21:35.456Z,96317.00
2022-09-12T17:24:03.267Z,96329.03
2022-09-12T17:26:30.018Z,96322.63
2022-09-12T17:28:56.811Z,96329.50
2022-09-12T17:31:24.028Z,96321.44
2022-09-12T17:33:50.835Z,96323.53
2022-09-12T17:36:18.320Z,96323.50
2022-09-12T17:38:46.507Z,96329.31
2022-09-12T17:41:19.991Z,96329.25
2022-09-12T17:43:58.040Z,96334.59
2022-09-12T17:46:31.679Z,96340.91
2022-09-12T17:49:00.210Z,96339.22
2022-09-12T17:51:30.634Z,96337.56
2022-09-12T17:54:11.723Z,96333.28
2022-09-12T17:56:39.367Z,96340.72
2022-09-12T17:59:08.676Z,96335.88
2022-09-12T18:01:54.213Z,96341.91
2022-09-12T18:04:21.138Z,96343.97
2022-09-12T18:06:49.058Z,96339.97
2022-09-12T18:09:22.617Z,96340.41
2022-09-12T18:11:50.606Z,96342.22
2022-09-12T18:14:18.336Z,96338.41
2022-09-12T18:16:46.690Z,96340.72
2022-09-12T18:19:14.107Z,96333.72
2022-09-12T18:21:41.570Z,96336.38
2022-09-12T18:24:10.565Z,96333.63
2022-09-12T18:26:37.655Z,96336.69
2022-09-12T18:29:04.455Z,96331.97
2022-09-12T18:31:31.561Z,96327.22
2022-09-12T18:34:02.542Z,96330.13
2022-09-12T18:36:30.222Z,96339.06
2022-09-12T18:38:58.933Z,96334.59
2022-09-12T18:41:26.458Z,96335.66
2022-09-12T18:43:58.882Z,96341.97
2022-09-12T18:46:27.904Z,96347.47
2022-09-12T18:48:58.968Z,96344.75
2022-09-12T18:51:31.389Z,96339.25
2022-09-12T18:54:01.442Z,96338.97
2022-09-12T18:56:34.493Z,96338.00
2022-09-12T18:59:03.594Z,96336.38
2022-09-12T19:01:38.436Z,96337.34
2022-09-12T19:04:07.605Z,96342.03
2022-09-12T19:06:39.061Z,96335.72
2022-09-12T19:09:08.932Z,96345.09
2022-09-12T19:11:39.451Z,96337.03
2022-09-12T19:14:07.641Z,96342.69
2022-09-12T19:16:35.018Z,96341.44
2022-09-12T19:19:02.635Z,96338.63
2022-09-12T19:21:31.275Z,96346.59
2022-09-12T19:24:01.837Z,96342.03
2022-09-12T19:26:29.000Z,96345.03
2022-09-12T19:28:56.189Z,96350.56
2022-09-12T19:31:23.413Z,96345.22
2022-09-12T19:33:52.249Z,96347.19
2022-09-12T19:36:43.811Z,96344.41
2022-09-12T19:39:09.179Z,96344.41
2022-09-12T19:41:36.508Z,96345.22
2022-09-12T19:44:04.854Z,96351.84
2022-09-12T19:46:31.934Z,96355.03
2022-09-12T19:48:58.822Z,96355.84
2022-09-12T19:51:25.875Z,96354.59
2022-09-12T19:53:53.343Z,96352.13
2022-09-12T19:56:20.715Z,96358.34
2022-09-12T19:58:53.534Z,96365.19
2022-09-12T20:01:27.936Z,96358.53
2022-09-12T20:03:56.293Z,96361.88
2022-09-12T20:06:23.066Z,96363.63
2022-09-12T20:08:49.940Z,96356.72
2022-09-12T20:11:20.711Z,96363.78
2022-09-12T20:13:47.865Z,96365.38
2022-09-12T20:16:21.974Z,96360.66
2022-09-12T20:18:58.449Z,96357.38
2022-09-12T20:21:31.381Z,96355.97
2022-09-12T20:24:07.708Z,96360.03
2022-09-12T20:26:34.750Z,96357.03
2022-09-12T20:29:01.863Z,96347.94
2022-09-12T20:31:30.081Z,96349.31
2022-09-12T20:33:57.811Z,96343.81
2022-09-12T20:36:24.746Z,96343.72
2022-09-12T20:38:56.718Z,96334.50
2022-09-12T20:41:25.515Z,96350.22
2022-09-12T20:43:54.268Z,96343.59
2022-09-12T20:46:22.694Z,96345.81
2022-09-12T20:48:51.132Z,96340.63
2022-09-12T20:51:19.655Z,96345.00
2022-09-12T20:53:47.312Z,96332.91
2022-09-12T20:56:14.913Z,96335.78
2022-09-12T20:58:44.018Z,96328.53
2022-09-12T21:01:13.153Z,96330.81
2022-09-12T21:03:41.965Z,96330.94
2022-09-12T21:06:10.621Z,96332.56
2022-09-12T21:08:37.896Z,96340.84
2022-09-12T21:11:05.650Z,96335.09
2022-09-12T21:13:32.617Z,96334.16
2022-09-12T21:16:07.944Z,96332.66
2022-09-12T21:18:36.027Z,96335.09
2022-09-12T21:21:04.041Z,96331.41
2022-09-12T21:23:31.423Z,96337.28
2022-09-12T21:26:00.266Z,96337.16
2022-09-12T21:28:27.554Z,96331.28
2022-09-12T21:30:54.660Z,96333.03
2022-09-12T21:33:21.947Z,96334.72
2022-09-12T21:35:49.787Z,96340.13
2022-09-12T21:38:18.433Z,96336.94
2022-09-12T21:40:46.230Z,96336.66
2022-09-12T21:43:13.763Z,96340.72
2022-09-12T21:45:40.737Z,96333.47
2022-09-12T21:48:07.833Z,96330.22
2022-09-12T21:50:34.594Z,96334.94
2022-09-12T21:53:01.371Z,96342.16
2022-09-12T21:55:28.171Z,96356.63
2022-09-12T21:57:55.499Z,96339.50
2022-09-12T22:00:23.067Z,96342.44
2022-09-12T22:02:49.865Z,96343.22
2022-09-12T22:05:17.249Z,96347.38
2022-09-12T22:07:44.588Z,96344.59
2022-09-12T22:10:11.535Z,96346.41
2022-09-12T22:12:39.955Z,96344.31
2022-09-12T22:15:36.291Z,96346.03
2022-09-12T22:17:57.369Z,96343.25
2022-09-12T22:20:24.109Z,96341.16
2022-09-12T22:23:09.363Z,96349.97
2022-09-12T22:25:36.198Z,96342.91
2022-09-12T22:28:02.976Z,96344.31
2022-09-12T22:30:29.815Z,96340.00
2022-09-12T22:32:56.603Z,96340.59
2022-09-12T22:35:23.357Z,96324.94
2022-09-12T22:37:50.107Z,96330.56
2022-09-12T22:40:17.065Z,96328.69
2022-09-12T22:42:43.971Z,96324.56
2022-09-12T22:45:11.542Z,96317.38
2022-09-12T22:47:38.306Z,96316.94
2022-09-12T22:50:05.873Z,96316.81
2022-09-12T22:52:32.631Z,96308.88
2022-09-12T22:54:59.374Z,96304.00
2022-09-12T22:57:26.179Z,96309.47
2022-09-12T22:59:52.946Z,96313.91
2022-09-12T23:02:19.759Z,96302.19
2022-09-12T23:04:46.942Z,96304.41
2022-09-12T23:07:13.743Z,96312.47
2022-09-12T23:09:40.548Z,96305.00
2022-09-12T23:12:07.411Z,96302.78
2022-09-12T23:14:34.259Z,96306.53
2022-09-12T23:17:01.045Z,96303.38
2022-09-12T23:19:27.778Z,96305.00
2022-09-12T23:21:54.540Z,96307.03
2022-09-12T23:24:21.309Z,96304.59
2022-09-12T23:26:48.062Z,96302.63
2022-09-12T23:29:15.586Z,96302.63
2022-09-12T23:31:42.376Z,96303.03
2022-09-12T23:34:10.298Z,96302.47
2022-09-12T23:36:37.181Z,96301.44
2022-09-12T23:39:04.567Z,96296.97
2022-09-12T23:41:31.702Z,96307.97
2022-09-12T23:43:58.819Z,96311.25
2022-09-12T23:46:25.598Z,96291.00
2022-09-12T23:48:55.621Z,96295.06
2022-09-12T23:51:22.430Z,96286.75
2022-09-12T23:53:50.407Z,96280.03
2022-09-12T23:56:17.185Z,96278.63
2022-09-12T23:58:43.948Z,96289.53
